PWSweather.com
Personal Weather Stations
Station Observations
NEWFAL01
Newton Falls, OH 44444

Newton Falls, OH 44444

Lat: 41.19902, Lon: -80.97668

Elevation: 920

Station Type: Vantage Pro 2

http://www.mvweathercenter.com

High Low Average
Temperature 54.4°F12.4°F 33.7°F0.9°F 44.6°F7.0°F
Dew Point 51.9°F11.1°F 27.8°F-2.3°F 41.1°F5.1°F
Winds 11.5 mph N18.5 mph N Calm Calm 1.9 mph 3.1 mph
Wind Gusts 20.7 mph33.3 mph -- 3.6 mph5.8 mph
Humidity 91% 73% 87%
Pressure 29.85 in1010.80 in 29.13 in986.50 in -
Precipitation 2.37 in60.20 in - -
Hour Temp Dew Point Humidity Winds Wind Gusts Pressure Precip Precip Rate Daily Precip Total
12:00 AM 33.7°F0.9°C 27.8°F-2.3°C 79% Calm Calm 1.2 mph1.9 kmh 29.85 in1010.8 mb - 0.00 in0.0 mm 0.00 in0.0 mm
12:10 AM 33.9°F1.1°C 28.1°F-2.2°C 79% Calm Calm -- 29.84 in1010.5 mb - 0.00 in0.0 mm 0.00 in0.0 mm
12:15 AM 34.2°F1.2°C 28.4°F-2.0°C 79% 1.2 mph N1.9 kmh N 4.6 mph7.4 kmh 29.83 in1010.2 mb - 0.00 in0.0 mm 0.00 in0.0 mm
12:20 AM 34.4°F1.3°C 28.6°F-1.9°C 79% Calm Calm -- 29.83 in1010.2 mb - 0.00 in0.0 mm 0.00 in0.0 mm
12:25 AM 34.9°F1.6°C 29.0°F-1.7°C 79% 2.3 mph N3.7 kmh N 3.5 mph5.6 kmh 29.82 in1009.8 mb - 0.00 in0.0 mm 0.00 in0.0 mm
12:30 AM 35.3°F1.8°C 29.1°F-1.6°C 78% 1.2 mph N1.9 kmh N 1.2 mph1.9 kmh 29.82 in1009.8 mb - 0.00 in0.0 mm 0.00 in0.0 mm
12:35 AM 35.7°F2.1°C 29.1°F-1.6°C 77% 1.2 mph N1.9 kmh N 3.5 mph5.6 kmh 29.82 in1009.8 mb - 0.00 in0.0 mm 0.00 in0.0 mm
12:40 AM 36.0°F2.2°C 29.1°F-1.6°C 76% 1.2 mph N1.9 kmh N 1.2 mph1.9 kmh 29.81 in1009.5 mb - 0.00 in0.0 mm 0.00 in0.0 mm
12:45 AM 36.3°F2.4°C 29.4°F-1.4°C 76% Calm Calm 1.2 mph1.9 kmh 29.81 in1009.5 mb - 0.00 in0.0 mm 0.00 in0.0 mm
12:50 AM 36.5°F2.5°C 29.3°F-1.5°C 75% Calm Calm 1.2 mph1.9 kmh 29.80 in1009.1 mb - 0.00 in0.0 mm 0.00 in0.0 mm
12:55 AM 36.8°F2.7°C 29.6°F-1.3°C 75% 1.2 mph N1.9 kmh N -- 29.80 in1009.1 mb - 0.00 in0.0 mm 0.00 in0.0 mm
01:00 AM 36.9°F2.7°C 29.7°F-1.3°C 75% Calm Calm -- 29.80 in1009.1 mb - 0.00 in0.0 mm 0.00 in0.0 mm
01:10 AM 37.2°F2.9°C 29.7°F-1.3°C 74% Calm Calm -- 29.79 in1008.8 mb - 0.00 in0.0 mm 0.00 in0.0 mm
01:15 AM 37.4°F3.0°C 29.9°F-1.2°C 74% Calm Calm 3.5 mph5.6 kmh 29.79 in1008.8 mb - 0.00 in0.0 mm 0.00 in0.0 mm
01:20 AM 37.6°F3.1°C 30.1°F-1.1°C 74% Calm Calm -- 29.79 in1008.8 mb - 0.00 in0.0 mm 0.00 in0.0 mm
01:25 AM 37.7°F3.2°C 30.2°F-1.0°C 74% Calm Calm -- 29.79 in1008.8 mb - 0.00 in0.0 mm 0.00 in0.0 mm
01:30 AM 37.9°F3.3°C 30.3°F-0.9°C 74% Calm Calm -- 29.79 in1008.8 mb - 0.00 in0.0 mm 0.00 in0.0 mm
01:35 AM 38.0°F3.3°C 30.4°F-0.9°C 74% Calm Calm -- 29.79 in1008.8 mb - 0.00 in0.0 mm 0.00 in0.0 mm
01:40 AM 38.1°F3.4°C 30.2°F-1.0°C 73% Calm Calm -- 29.78 in1008.5 mb - 0.00 in0.0 mm 0.00 in0.0 mm
01:45 AM 38.2°F3.4°C 30.6°F-0.8°C 74% Calm Calm -- 29.78 in1008.5 mb - 0.00 in0.0 mm 0.00 in0.0 mm
01:50 AM 38.3°F3.5°C 31.1°F-0.5°C 75% Calm Calm -- 29.78 in1008.5 mb - 0.00 in0.0 mm 0.00 in0.0 mm
01:55 AM 38.3°F3.5°C 30.7°F-0.7°C 74% Calm Calm -- 29.78 in1008.5 mb - 0.00 in0.0 mm 0.00 in0.0 mm
02:00 AM 38.2°F3.4°C 30.6°F-0.8°C 74% Calm Calm -- 29.78 in1008.5 mb - 0.00 in0.0 mm 0.00 in0.0 mm
02:10 AM 38.2°F3.4°C 31.0°F-0.6°C 75% Calm Calm -- 29.78 in1008.5 mb - 0.00 in0.0 mm 0.00 in0.0 mm
02:15 AM 38.2°F3.4°C 31.3°F-0.4°C 76% Calm Calm 1.2 mph1.9 kmh 29.77 in1008.1 mb - 0.00 in0.0 mm 0.00 in0.0 mm
02:20 AM 38.2°F3.4°C 31.3°F-0.4°C 76% Calm Calm -- 29.77 in1008.1 mb - 0.00 in0.0 mm 0.00 in0.0 mm
02:25 AM 38.2°F3.4°C 31.6°F-0.2°C 77% Calm Calm -- 29.78 in1008.5 mb - 0.00 in0.0 mm 0.00 in0.0 mm
02:30 AM 38.3°F3.5°C 31.7°F-0.2°C 77% Calm Calm -- 29.79 in1008.8 mb - 0.00 in0.0 mm 0.00 in0.0 mm
02:35 AM 38.3°F3.5°C 31.7°F-0.2°C 77% Calm Calm -- 29.79 in1008.8 mb - 0.00 in0.0 mm 0.00 in0.0 mm
02:40 AM 38.4°F3.6°C 32.1°F0.1°C 78% Calm Calm -- 29.79 in1008.8 mb - 0.00 in0.0 mm 0.00 in0.0 mm
02:45 AM 38.4°F3.6°C 32.1°F0.1°C 78% Calm Calm -- 29.78 in1008.5 mb - 0.00 in0.0 mm 0.00 in0.0 mm
02:50 AM 38.4°F3.6°C 32.1°F0.1°C 78% Calm Calm -- 29.77 in1008.1 mb - 0.00 in0.0 mm 0.00 in0.0 mm
02:55 AM 38.4°F3.6°C 32.1°F0.1°C 78% Calm Calm -- 29.77 in1008.1 mb - 0.00 in0.0 mm 0.00 in0.0 mm
03:00 AM 38.4°F3.6°C 32.1°F0.1°C 78% Calm Calm -- 29.77 in1008.1 mb - 0.00 in0.0 mm 0.00 in0.0 mm
03:10 AM 38.5°F3.6°C 32.2°F0.1°C 78% Calm Calm -- 29.76 in1007.8 mb - 0.00 in0.0 mm 0.00 in0.0 mm
03:15 AM 38.6°F3.7°C 32.6°F0.3°C 79% Calm Calm -- 29.75 in1007.5 mb - 0.00 in0.0 mm 0.00 in0.0 mm
03:20 AM 38.6°F3.7°C 33.0°F0.6°C 80% Calm Calm -- 29.75 in1007.5 mb - 0.01 in0.3 mm 0.01 in0.3 mm
03:25 AM 38.7°F3.7°C 33.4°F0.8°C 81% Calm Calm -- 29.75 in1007.5 mb - 0.03 in0.8 mm 0.04 in1.0 mm
03:30 AM 38.6°F3.7°C 33.3°F0.7°C 81% Calm Calm -- 29.74 in1007.1 mb - 0.04 in1.0 mm 0.07 in1.8 mm
03:35 AM 38.6°F3.7°C 33.6°F0.9°C 82% Calm Calm -- 29.74 in1007.1 mb - 0.03 in0.8 mm 0.09 in2.3 mm
03:40 AM 38.5°F3.6°C 33.5°F0.8°C 82% Calm Calm -- 29.73 in1006.8 mb - 0.04 in1.0 mm 0.13 in3.3 mm
03:45 AM 38.4°F3.6°C 33.7°F0.9°C 83% Calm Calm -- 29.72 in1006.4 mb - 0.03 in0.8 mm 0.16 in4.1 mm
03:50 AM 38.4°F3.6°C 33.7°F0.9°C 83% 1.2 mph N1.9 kmh N 3.5 mph5.6 kmh 29.73 in1006.8 mb - 0.03 in0.8 mm 0.18 in4.6 mm
03:55 AM 38.5°F3.6°C 34.1°F1.2°C 84% Calm Calm -- 29.73 in1006.8 mb - 0.01 in0.3 mm 0.19 in4.8 mm
04:00 AM 38.5°F3.6°C 34.1°F1.2°C 84% Calm Calm -- 29.73 in1006.8 mb - 0.02 in0.5 mm 0.21 in5.3 mm
04:10 AM 38.7°F3.7°C 34.6°F1.4°C 85% 2.3 mph N3.7 kmh N 4.6 mph7.4 kmh 29.71 in1006.1 mb - 0.05 in1.3 mm 0.26 in6.6 mm
04:15 AM 38.7°F3.7°C 34.6°F1.4°C 85% Calm Calm 1.2 mph1.9 kmh 29.69 in1005.4 mb - 0.03 in0.8 mm 0.28 in7.1 mm
04:20 AM 38.7°F3.7°C 34.9°F1.6°C 86% 1.2 mph N1.9 kmh N 3.5 mph5.6 kmh 29.70 in1005.8 mb - 0.04 in1.0 mm 0.31 in7.9 mm
04:25 AM 38.8°F3.8°C 35.0°F1.7°C 86% Calm Calm -- 29.71 in1006.1 mb - 0.03 in0.8 mm 0.33 in8.4 mm
04:30 AM 38.9°F3.8°C 35.0°F1.7°C 86% 5.8 mph N9.3 kmh N 5.8 mph9.3 kmh 29.70 in1005.8 mb - 0.09 in2.3 mm 0.41 in10.4 mm
04:35 AM 38.9°F3.8°C 35.1°F1.7°C 86% 2.3 mph N3.7 kmh N 3.5 mph5.6 kmh 29.69 in1005.4 mb - 0.10 in2.5 mm 0.48 in12.2 mm
04:40 AM 38.9°F3.8°C 35.1°F1.7°C 86% Calm Calm -- 29.69 in1005.4 mb - 0.04 in1.0 mm 0.51 in13.0 mm
04:45 AM 39.0°F3.9°C 35.5°F1.9°C 87% 1.2 mph N1.9 kmh N 3.5 mph5.6 kmh 29.69 in1005.4 mb - 0.03 in0.8 mm 0.53 in13.5 mm
04:50 AM 39.1°F3.9°C 35.6°F2.0°C 87% Calm Calm -- 29.68 in1005.1 mb - 0.02 in0.5 mm 0.55 in14.0 mm
04:55 AM 39.2°F4.0°C 35.7°F2.1°C 87% 1.2 mph N1.9 kmh N 1.2 mph1.9 kmh 29.68 in1005.1 mb - 0.01 in0.3 mm 0.56 in14.2 mm
05:00 AM 39.4°F4.1°C 35.9°F2.2°C 87% 3.5 mph N5.6 kmh N 4.6 mph7.4 kmh 29.68 in1005.1 mb - 0.03 in0.8 mm 0.59 in15.0 mm
05:10 AM 39.7°F4.3°C 36.1°F2.3°C 87% 2.3 mph N3.7 kmh N 3.5 mph5.6 kmh 29.68 in1005.1 mb - 0.04 in1.0 mm 0.62 in15.7 mm
05:15 AM 39.9°F4.4°C 36.3°F2.4°C 87% 3.5 mph N5.6 kmh N 8.1 mph13.0 kmh 29.68 in1005.1 mb - 0.05 in1.3 mm 0.66 in16.8 mm
05:20 AM 40.0°F4.4°C 36.7°F2.6°C 88% Calm Calm -- 29.68 in1005.1 mb - 0.03 in0.8 mm 0.68 in17.3 mm
05:25 AM 40.1°F4.5°C 36.8°F2.7°C 88% 1.2 mph N1.9 kmh N 3.5 mph5.6 kmh 29.68 in1005.1 mb - 0.03 in0.8 mm 0.70 in17.8 mm
05:30 AM 40.2°F4.6°C 36.9°F2.7°C 88% Calm Calm -- 29.68 in1005.1 mb - 0.02 in0.5 mm 0.72 in18.3 mm
05:35 AM 40.3°F4.6°C 37.0°F2.8°C 88% 1.2 mph N1.9 kmh N 5.8 mph9.3 kmh 29.68 in1005.1 mb - 0.01 in0.3 mm 0.73 in18.5 mm
05:40 AM 40.4°F4.7°C 37.1°F2.8°C 88% 3.5 mph N5.6 kmh N 4.6 mph7.4 kmh 29.66 in1004.4 mb - 0.03 in0.8 mm 0.76 in19.3 mm
05:45 AM 40.5°F4.7°C 37.3°F2.9°C 88% 2.3 mph N3.7 kmh N 5.8 mph9.3 kmh 29.66 in1004.4 mb - 0.04 in1.0 mm 0.79 in20.1 mm
05:50 AM 40.6°F4.8°C 37.3°F2.9°C 88% 2.3 mph N3.7 kmh N 4.6 mph7.4 kmh 29.66 in1004.4 mb - 0.01 in0.3 mm 0.79 in20.1 mm
05:55 AM 40.7°F4.8°C 37.4°F3.0°C 88% 1.2 mph N1.9 kmh N -- 29.66 in1004.4 mb - 0.01 in0.3 mm 0.80 in20.3 mm
06:00 AM 40.8°F4.9°C 37.5°F3.1°C 88% Calm Calm 1.2 mph1.9 kmh 29.67 in1004.7 mb - 0.00 in0.0 mm 0.80 in20.3 mm
06:10 AM 41.0°F5.0°C 37.7°F3.2°C 88% Calm Calm -- 29.67 in1004.7 mb - 0.00 in0.0 mm 0.80 in20.3 mm
06:15 AM 41.1°F5.1°C 37.8°F3.2°C 88% Calm Calm -- 29.67 in1004.7 mb - 0.00 in0.0 mm 0.80 in20.3 mm
06:20 AM 41.1°F5.1°C 37.9°F3.3°C 88% Calm Calm -- 29.67 in1004.7 mb - 0.00 in0.0 mm 0.80 in20.3 mm
06:25 AM 41.3°F5.2°C 38.0°F3.3°C 88% Calm Calm -- 29.67 in1004.7 mb - 0.01 in0.3 mm 0.81 in20.6 mm
06:30 AM 41.4°F5.2°C 38.1°F3.4°C 88% Calm Calm -- 29.67 in1004.7 mb - 0.00 in0.0 mm 0.81 in20.6 mm
06:35 AM 41.4°F5.2°C 38.1°F3.4°C 88% 4.6 mph N7.4 kmh N 4.6 mph7.4 kmh 29.67 in1004.7 mb - 0.00 in0.0 mm 0.81 in20.6 mm
06:40 AM 41.6°F5.3°C 38.3°F3.5°C 88% Calm Calm 1.2 mph1.9 kmh 29.66 in1004.4 mb - 0.01 in0.3 mm 0.82 in20.8 mm
06:45 AM 41.6°F5.3°C 38.3°F3.5°C 88% Calm Calm -- 29.66 in1004.4 mb - 0.01 in0.3 mm 0.83 in21.1 mm
06:50 AM 41.6°F5.3°C 38.3°F3.5°C 88% Calm Calm -- 29.67 in1004.7 mb - 0.01 in0.3 mm 0.84 in21.3 mm
06:55 AM 41.6°F5.3°C 38.3°F3.5°C 88% Calm Calm -- 29.66 in1004.4 mb - 0.00 in0.0 mm 0.84 in21.3 mm
07:00 AM 41.5°F5.3°C 38.2°F3.4°C 88% Calm Calm 3.5 mph5.6 kmh 29.66 in1004.4 mb - 0.01 in0.3 mm 0.85 in21.6 mm
07:10 AM 41.6°F5.3°C 38.3°F3.5°C 88% Calm Calm -- 29.66 in1004.4 mb - 0.02 in0.5 mm 0.87 in22.1 mm
07:15 AM 41.7°F5.4°C 38.7°F3.7°C 89% Calm Calm 1.2 mph1.9 kmh 29.66 in1004.4 mb - 0.00 in0.0 mm 0.87 in22.1 mm
07:20 AM 41.8°F5.4°C 38.8°F3.8°C 89% Calm Calm -- 29.66 in1004.4 mb - 0.00 in0.0 mm 0.87 in22.1 mm
07:25 AM 41.9°F5.5°C 38.9°F3.8°C 89% 2.3 mph N3.7 kmh N 4.6 mph7.4 kmh 29.65 in1004.1 mb - 0.00 in0.0 mm 0.87 in22.1 mm
07:30 AM 41.9°F5.5°C 38.9°F3.8°C 89% 3.5 mph N5.6 kmh N 4.6 mph7.4 kmh 29.65 in1004.1 mb - 0.00 in0.0 mm 0.87 in22.1 mm
07:35 AM 42.0°F5.6°C 39.0°F3.9°C 89% 2.3 mph N3.7 kmh N 5.8 mph9.3 kmh 29.65 in1004.1 mb - 0.00 in0.0 mm 0.87 in22.1 mm
07:40 AM 42.1°F5.6°C 39.1°F3.9°C 89% Calm Calm -- 29.65 in1004.1 mb - 0.01 in0.3 mm 0.88 in22.4 mm
07:45 AM 42.2°F5.7°C 39.2°F4.0°C 89% 3.5 mph N5.6 kmh N 3.5 mph5.6 kmh 29.65 in1004.1 mb - 0.00 in0.0 mm 0.88 in22.4 mm
07:50 AM 42.2°F5.7°C 39.2°F4.0°C 89% Calm Calm 4.6 mph7.4 kmh 29.65 in1004.1 mb - 0.00 in0.0 mm 0.88 in22.4 mm
07:55 AM 42.3°F5.7°C 39.3°F4.1°C 89% 3.5 mph N5.6 kmh N 5.8 mph9.3 kmh 29.65 in1004.1 mb - 0.00 in0.0 mm 0.88 in22.4 mm
08:00 AM 42.4°F5.8°C 39.4°F4.1°C 89% Calm Calm 4.6 mph7.4 kmh 29.64 in1003.7 mb - 0.01 in0.3 mm 0.89 in22.6 mm
08:10 AM 42.5°F5.8°C 39.5°F4.2°C 89% Calm Calm 1.2 mph1.9 kmh 29.65 in1004.1 mb - 0.00 in0.0 mm 0.89 in22.6 mm
08:15 AM 42.5°F5.8°C 39.5°F4.2°C 89% 2.3 mph N3.7 kmh N 4.6 mph7.4 kmh 29.64 in1003.7 mb - 0.01 in0.3 mm 0.90 in22.9 mm
08:20 AM 42.5°F5.8°C 39.5°F4.2°C 89% 5.8 mph N9.3 kmh N 9.2 mph14.8 kmh 29.64 in1003.7 mb - 0.01 in0.3 mm 0.91 in23.1 mm
08:25 AM 42.6°F5.9°C 39.6°F4.2°C 89% Calm Calm -- 29.64 in1003.7 mb - 0.02 in0.5 mm 0.93 in23.6 mm
08:30 AM 42.6°F5.9°C 39.6°F4.2°C 89% Calm Calm -- 29.64 in1003.7 mb - 0.02 in0.5 mm 0.94 in23.9 mm
08:35 AM 42.6°F5.9°C 39.6°F4.2°C 89% 3.5 mph N5.6 kmh N 5.8 mph9.3 kmh 29.64 in1003.7 mb - 0.02 in0.5 mm 0.96 in24.4 mm
08:40 AM 42.7°F5.9°C 39.7°F4.3°C 89% 2.3 mph N3.7 kmh N 8.1 mph13.0 kmh 29.64 in1003.7 mb - 0.02 in0.5 mm 0.98 in24.9 mm
08:45 AM 42.7°F5.9°C 39.7°F4.3°C 89% Calm Calm -- 29.64 in1003.7 mb - 0.02 in0.5 mm 1.00 in25.4 mm
08:50 AM 42.7°F5.9°C 39.7°F4.3°C 89% 2.3 mph N3.7 kmh N 3.5 mph5.6 kmh 29.64 in1003.7 mb - 0.01 in0.3 mm 1.01 in25.7 mm
08:55 AM 42.7°F5.9°C 39.7°F4.3°C 89% Calm Calm -- 29.63 in1003.4 mb - 0.01 in0.3 mm 1.02 in25.9 mm
09:00 AM 42.8°F6.0°C 39.8°F4.3°C 89% Calm Calm 1.2 mph1.9 kmh 29.63 in1003.4 mb - 0.01 in0.3 mm 1.03 in26.2 mm
09:10 AM 42.8°F6.0°C 39.8°F4.3°C 89% 4.6 mph N7.4 kmh N 5.8 mph9.3 kmh 29.62 in1003.0 mb - 0.01 in0.3 mm 1.04 in26.4 mm
09:15 AM 42.9°F6.1°C 39.9°F4.4°C 89% 1.2 mph N1.9 kmh N 3.5 mph5.6 kmh 29.62 in1003.0 mb - 0.01 in0.3 mm 1.05 in26.7 mm
09:20 AM 42.9°F6.1°C 39.9°F4.4°C 89% Calm Calm 1.2 mph1.9 kmh 29.61 in1002.7 mb - 0.01 in0.3 mm 1.06 in26.9 mm
09:25 AM 43.0°F6.1°C 39.9°F4.4°C 89% 2.3 mph N3.7 kmh N 4.6 mph7.4 kmh 29.61 in1002.7 mb - 0.01 in0.3 mm 1.07 in27.2 mm
09:30 AM 43.0°F6.1°C 40.0°F4.4°C 89% 1.2 mph N1.9 kmh N 4.6 mph7.4 kmh 29.61 in1002.7 mb - 0.01 in0.3 mm 1.07 in27.2 mm
09:35 AM 43.1°F6.2°C 40.1°F4.5°C 89% Calm Calm -- 29.60 in1002.4 mb - 0.01 in0.3 mm 1.08 in27.4 mm
09:40 AM 43.2°F6.2°C 40.2°F4.6°C 89% 2.3 mph N3.7 kmh N 8.1 mph13.0 kmh 29.60 in1002.4 mb - 0.01 in0.3 mm 1.09 in27.7 mm
09:45 AM 43.3°F6.3°C 40.3°F4.6°C 89% 3.5 mph N5.6 kmh N 4.6 mph7.4 kmh 29.59 in1002.0 mb - 0.01 in0.3 mm 1.09 in27.7 mm
09:50 AM 43.3°F6.3°C 40.3°F4.6°C 89% 3.5 mph N5.6 kmh N 4.6 mph7.4 kmh 29.59 in1002.0 mb - 0.01 in0.3 mm 1.10 in27.9 mm
09:55 AM 43.4°F6.3°C 40.4°F4.7°C 89% 2.3 mph N3.7 kmh N 4.6 mph7.4 kmh 29.58 in1001.7 mb - 0.00 in0.0 mm 1.10 in27.9 mm
10:00 AM 43.5°F6.4°C 40.5°F4.7°C 89% 2.3 mph N3.7 kmh N 4.6 mph7.4 kmh 29.57 in1001.4 mb - 0.00 in0.0 mm 1.10 in27.9 mm
10:10 AM 43.7°F6.5°C 40.7°F4.8°C 89% 3.5 mph N5.6 kmh N 5.8 mph9.3 kmh 29.55 in1000.7 mb - 0.00 in0.0 mm 1.10 in27.9 mm
10:15 AM 43.8°F6.6°C 40.8°F4.9°C 89% 3.5 mph N5.6 kmh N 4.6 mph7.4 kmh 29.54 in1000.3 mb - 0.00 in0.0 mm 1.10 in27.9 mm
10:20 AM 44.0°F6.7°C 40.9°F4.9°C 89% 3.5 mph N5.6 kmh N 5.8 mph9.3 kmh 29.54 in1000.3 mb - 0.00 in0.0 mm 1.10 in27.9 mm
10:25 AM 44.2°F6.8°C 41.2°F5.1°C 89% 3.5 mph N5.6 kmh N 3.5 mph5.6 kmh 29.54 in1000.3 mb - 0.00 in0.0 mm 1.10 in27.9 mm
10:30 AM 44.4°F6.9°C 41.4°F5.2°C 89% 3.5 mph N5.6 kmh N 3.5 mph5.6 kmh 29.53 in1000.0 mb - 0.00 in0.0 mm 1.10 in27.9 mm
10:35 AM 44.6°F7.0°C 41.8°F5.4°C 90% 4.6 mph N7.4 kmh N 5.8 mph9.3 kmh 29.54 in1000.3 mb - 0.00 in0.0 mm 1.10 in27.9 mm
10:40 AM 44.6°F7.0°C 41.8°F5.4°C 90% 5.8 mph N9.3 kmh N 9.2 mph14.8 kmh 29.55 in1000.7 mb - 0.00 in0.0 mm 1.10 in27.9 mm
10:45 AM 44.7°F7.1°C 41.9°F5.5°C 90% 2.3 mph N3.7 kmh N 4.6 mph7.4 kmh 29.55 in1000.7 mb - 0.00 in0.0 mm 1.10 in27.9 mm
10:50 AM 44.7°F7.1°C 42.0°F5.6°C 90% Calm Calm 4.6 mph7.4 kmh 29.55 in1000.7 mb - 0.00 in0.0 mm 1.10 in27.9 mm
10:55 AM 44.9°F7.2°C 41.9°F5.5°C 89% 2.3 mph N3.7 kmh N 4.6 mph7.4 kmh 29.55 in1000.7 mb - 0.00 in0.0 mm 1.10 in27.9 mm
11:00 AM 45.0°F7.2°C 42.0°F5.6°C 89% Calm Calm -- 29.55 in1000.7 mb - 0.00 in0.0 mm 1.10 in27.9 mm
11:10 AM 45.1°F7.3°C 42.3°F5.7°C 90% 1.2 mph N1.9 kmh N 4.6 mph7.4 kmh 29.54 in1000.3 mb - 0.00 in0.0 mm 1.10 in27.9 mm
11:15 AM 45.2°F7.3°C 42.4°F5.8°C 90% Calm Calm -- 29.54 in1000.3 mb - 0.00 in0.0 mm 1.10 in27.9 mm
11:20 AM 45.3°F7.4°C 42.5°F5.8°C 90% Calm Calm -- 29.54 in1000.3 mb - 0.00 in0.0 mm 1.10 in27.9 mm
11:25 AM 45.4°F7.4°C 42.6°F5.9°C 90% 1.2 mph N1.9 kmh N 4.6 mph7.4 kmh 29.54 in1000.3 mb - 0.00 in0.0 mm 1.10 in27.9 mm
11:30 AM 45.5°F7.5°C 42.7°F5.9°C 90% Calm Calm -- 29.53 in1000.0 mb - 0.00 in0.0 mm 1.10 in27.9 mm
11:35 AM 45.6°F7.6°C 42.8°F6.0°C 90% Calm Calm -- 29.53 in1000.0 mb - 0.00 in0.0 mm 1.10 in27.9 mm
11:40 AM 45.7°F7.6°C 42.9°F6.1°C 90% Calm Calm -- 29.53 in1000.0 mb - 0.00 in0.0 mm 1.10 in27.9 mm
11:45 AM 45.8°F7.7°C 43.0°F6.1°C 90% Calm Calm -- 29.52 in999.7 mb - 0.00 in0.0 mm 1.10 in27.9 mm
11:50 AM 45.9°F7.7°C 43.1°F6.2°C 90% Calm Calm -- 29.51 in999.3 mb - 0.00 in0.0 mm 1.10 in27.9 mm
11:55 AM 46.1°F7.8°C 43.3°F6.3°C 90% 1.2 mph N1.9 kmh N -- 29.51 in999.3 mb - 0.01 in0.3 mm 1.11 in28.2 mm
12:00 PM 46.2°F7.9°C 43.4°F6.3°C 90% Calm Calm 3.5 mph5.6 kmh 29.50 in999.0 mb - 0.00 in0.0 mm 1.11 in28.2 mm
12:10 PM 46.5°F8.1°C 43.7°F6.5°C 90% Calm Calm -- 29.49 in998.6 mb - 0.01 in0.3 mm 1.12 in28.4 mm
12:15 PM 46.5°F8.1°C 43.7°F6.5°C 90% Calm Calm -- 29.48 in998.3 mb - 0.02 in0.5 mm 1.14 in29.0 mm
12:20 PM 46.6°F8.1°C 43.8°F6.6°C 90% Calm Calm -- 29.48 in998.3 mb - 0.03 in0.8 mm 1.17 in29.7 mm
12:25 PM 46.7°F8.2°C 43.9°F6.6°C 90% 1.2 mph N1.9 kmh N 4.6 mph7.4 kmh 29.48 in998.3 mb - 0.04 in1.0 mm 1.20 in30.5 mm
12:30 PM 46.8°F8.2°C 44.0°F6.7°C 90% Calm Calm 1.2 mph1.9 kmh 29.46 in997.6 mb - 0.02 in0.5 mm 1.21 in30.7 mm
12:35 PM 46.8°F8.2°C 44.0°F6.7°C 90% 1.2 mph N1.9 kmh N 3.5 mph5.6 kmh 29.46 in997.6 mb - 0.02 in0.5 mm 1.23 in31.2 mm
12:40 PM 46.8°F8.2°C 44.0°F6.7°C 90% Calm Calm -- 29.45 in997.3 mb - 0.03 in0.8 mm 1.25 in31.8 mm
12:45 PM 46.8°F8.2°C 44.0°F6.7°C 90% Calm Calm -- 29.45 in997.3 mb - 0.01 in0.3 mm 1.25 in31.8 mm
12:50 PM 46.8°F8.2°C 44.1°F6.7°C 90% 1.2 mph N1.9 kmh N 3.5 mph5.6 kmh 29.44 in997.0 mb - 0.01 in0.3 mm 1.26 in32.0 mm
12:55 PM 46.9°F8.3°C 44.1°F6.7°C 90% Calm Calm 5.8 mph9.3 kmh 29.43 in996.6 mb - 0.01 in0.3 mm 1.26 in32.0 mm
01:00 PM 46.9°F8.3°C 44.1°F6.7°C 90% Calm Calm -- 29.43 in996.6 mb - 0.00 in0.0 mm 1.26 in32.0 mm
01:10 PM 46.9°F8.3°C 44.1°F6.7°C 90% 1.2 mph N1.9 kmh N 1.2 mph1.9 kmh 29.42 in996.3 mb - 0.02 in0.5 mm 1.28 in32.5 mm
01:15 PM 46.9°F8.3°C 44.1°F6.7°C 90% 5.8 mph N9.3 kmh N 5.8 mph9.3 kmh 29.42 in996.3 mb - 0.01 in0.3 mm 1.29 in32.8 mm
01:20 PM 46.9°F8.3°C 44.1°F6.7°C 90% Calm Calm -- 29.42 in996.3 mb - 0.01 in0.3 mm 1.30 in33.0 mm
01:25 PM 47.0°F8.3°C 44.2°F6.8°C 90% 4.6 mph N7.4 kmh N 8.1 mph13.0 kmh 29.42 in996.3 mb - 0.01 in0.3 mm 1.31 in33.3 mm
01:30 PM 47.0°F8.3°C 44.2°F6.8°C 90% 2.3 mph N3.7 kmh N 1.2 mph1.9 kmh 29.42 in996.3 mb - 0.01 in0.3 mm 1.31 in33.3 mm
01:35 PM 47.0°F8.3°C 44.2°F6.8°C 90% 3.5 mph N5.6 kmh N 4.6 mph7.4 kmh 29.41 in995.9 mb - 0.02 in0.5 mm 1.33 in33.8 mm
01:40 PM 47.0°F8.3°C 44.2°F6.8°C 90% 2.3 mph N3.7 kmh N 5.8 mph9.3 kmh 29.40 in995.6 mb - 0.02 in0.5 mm 1.34 in34.0 mm
01:45 PM 47.1°F8.4°C 44.3°F6.8°C 90% 4.6 mph N7.4 kmh N 8.1 mph13.0 kmh 29.40 in995.6 mb - 0.01 in0.3 mm 1.35 in34.3 mm
01:50 PM 47.1°F8.4°C 44.3°F6.8°C 90% 2.3 mph N3.7 kmh N 8.1 mph13.0 kmh 29.40 in995.6 mb - 0.00 in0.0 mm 1.35 in34.3 mm
01:55 PM 47.2°F8.4°C 44.4°F6.9°C 90% 3.5 mph N5.6 kmh N 4.6 mph7.4 kmh 29.38 in994.9 mb - 0.01 in0.3 mm 1.36 in34.5 mm
02:00 PM 47.3°F8.5°C 44.5°F6.9°C 90% 2.3 mph N3.7 kmh N 5.8 mph9.3 kmh 29.37 in994.6 mb - 0.00 in0.0 mm 1.36 in34.5 mm
02:10 PM 47.4°F8.6°C 44.6°F7.0°C 90% 2.3 mph N3.7 kmh N 8.1 mph13.0 kmh 29.39 in995.3 mb - 0.03 in0.8 mm 1.39 in35.3 mm
02:15 PM 47.4°F8.6°C 44.6°F7.0°C 90% 4.6 mph N7.4 kmh N 9.2 mph14.8 kmh 29.38 in994.9 mb - 0.02 in0.5 mm 1.41 in35.8 mm
02:20 PM 47.5°F8.6°C 44.7°F7.1°C 90% 1.2 mph N1.9 kmh N 4.6 mph7.4 kmh 29.37 in994.6 mb - 0.00 in0.0 mm 1.41 in35.8 mm
02:25 PM 47.5°F8.6°C 44.7°F7.1°C 90% 3.5 mph N5.6 kmh N 4.6 mph7.4 kmh 29.36 in994.2 mb - 0.01 in0.3 mm 1.42 in36.1 mm
02:30 PM 47.5°F8.6°C 44.7°F7.1°C 90% 2.3 mph N3.7 kmh N 9.2 mph14.8 kmh 29.35 in993.9 mb - 0.00 in0.0 mm 1.42 in36.1 mm
02:35 PM 47.6°F8.7°C 44.8°F7.1°C 90% 8.1 mph N13.0 kmh N 8.1 mph13.0 kmh 29.34 in993.6 mb - 0.00 in0.0 mm 1.42 in36.1 mm
02:40 PM 47.7°F8.7°C 44.9°F7.2°C 90% 3.5 mph N5.6 kmh N 9.2 mph14.8 kmh 29.33 in993.2 mb - 0.00 in0.0 mm 1.42 in36.1 mm
02:45 PM 47.8°F8.8°C 45.0°F7.2°C 90% 3.5 mph N5.6 kmh N 4.6 mph7.4 kmh 29.33 in993.2 mb - 0.00 in0.0 mm 1.42 in36.1 mm
02:50 PM 48.0°F8.9°C 45.2°F7.3°C 90% 1.2 mph N1.9 kmh N 1.2 mph1.9 kmh 29.33 in993.2 mb - 0.00 in0.0 mm 1.42 in36.1 mm
02:55 PM 48.2°F9.0°C 45.4°F7.4°C 90% 1.2 mph N1.9 kmh N 4.6 mph7.4 kmh 29.32 in992.9 mb - 0.00 in0.0 mm 1.42 in36.1 mm
03:00 PM 48.3°F9.1°C 45.5°F7.5°C 90% Calm Calm -- 29.32 in992.9 mb - 0.00 in0.0 mm 1.42 in36.1 mm
03:10 PM 48.5°F9.2°C 45.7°F7.6°C 90% 3.5 mph N5.6 kmh N 3.5 mph5.6 kmh 29.31 in992.6 mb - 0.00 in0.0 mm 1.42 in36.1 mm
03:15 PM 48.6°F9.2°C 45.8°F7.7°C 90% 2.3 mph N3.7 kmh N 8.1 mph13.0 kmh 29.30 in992.2 mb - 0.00 in0.0 mm 1.42 in36.1 mm
03:20 PM 48.7°F9.3°C 45.9°F7.7°C 90% Calm Calm 4.6 mph7.4 kmh 29.30 in992.2 mb - 0.00 in0.0 mm 1.42 in36.1 mm
03:25 PM 48.8°F9.3°C 46.0°F7.8°C 90% 1.2 mph N1.9 kmh N 3.5 mph5.6 kmh 29.30 in992.2 mb - 0.00 in0.0 mm 1.42 in36.1 mm
03:30 PM 48.9°F9.4°C 46.1°F7.8°C 90% 2.3 mph N3.7 kmh N 5.8 mph9.3 kmh 29.30 in992.2 mb - 0.00 in0.0 mm 1.42 in36.1 mm
03:35 PM 48.9°F9.4°C 46.1°F7.8°C 90% 2.3 mph N3.7 kmh N 3.5 mph5.6 kmh 29.30 in992.2 mb - 0.00 in0.0 mm 1.42 in36.1 mm
03:40 PM 48.9°F9.4°C 46.1°F7.8°C 90% 8.1 mph N13.0 kmh N 9.2 mph14.8 kmh 29.30 in992.2 mb - 0.00 in0.0 mm 1.42 in36.1 mm
03:45 PM 48.7°F9.3°C 45.9°F7.7°C 90% Calm Calm -- 29.29 in991.9 mb - 0.00 in0.0 mm 1.42 in36.1 mm
03:50 PM 48.5°F9.2°C 45.7°F7.6°C 90% 5.8 mph N9.3 kmh N 8.1 mph13.0 kmh 29.29 in991.9 mb - 0.00 in0.0 mm 1.42 in36.1 mm
03:55 PM 48.4°F9.1°C 45.6°F7.6°C 90% 3.5 mph N5.6 kmh N 3.5 mph5.6 kmh 29.29 in991.9 mb - 0.00 in0.0 mm 1.42 in36.1 mm
04:00 PM 48.2°F9.0°C 45.4°F7.4°C 90% Calm Calm -- 29.29 in991.9 mb - 0.00 in0.0 mm 1.42 in36.1 mm
04:10 PM 48.0°F8.9°C 45.2°F7.3°C 90% 2.3 mph N3.7 kmh N 1.2 mph1.9 kmh 29.29 in991.9 mb - 0.00 in0.0 mm 1.42 in36.1 mm
04:15 PM 48.0°F8.9°C 45.2°F7.3°C 90% Calm Calm -- 29.29 in991.9 mb - 0.00 in0.0 mm 1.42 in36.1 mm
04:20 PM 47.9°F8.8°C 45.1°F7.3°C 90% Calm Calm -- 29.29 in991.9 mb - 0.00 in0.0 mm 1.42 in36.1 mm
04:25 PM 47.9°F8.8°C 45.1°F7.3°C 90% Calm Calm -- 29.29 in991.9 mb - 0.00 in0.0 mm 1.42 in36.1 mm
04:30 PM 47.8°F8.8°C 45.0°F7.2°C 90% 1.2 mph N1.9 kmh N 4.6 mph7.4 kmh 29.28 in991.5 mb - 0.00 in0.0 mm 1.42 in36.1 mm
04:35 PM 47.8°F8.8°C 45.0°F7.2°C 90% Calm Calm -- 29.28 in991.5 mb - 0.00 in0.0 mm 1.42 in36.1 mm
04:40 PM 47.7°F8.7°C 44.9°F7.2°C 90% 1.2 mph N1.9 kmh N 3.5 mph5.6 kmh 29.28 in991.5 mb - 0.00 in0.0 mm 1.42 in36.1 mm
04:45 PM 47.7°F8.7°C 44.9°F7.2°C 90% Calm Calm -- 29.27 in991.2 mb - 0.00 in0.0 mm 1.42 in36.1 mm
04:50 PM 47.6°F8.7°C 44.8°F7.1°C 90% Calm Calm -- 29.26 in990.9 mb - 0.00 in0.0 mm 1.42 in36.1 mm
04:55 PM 47.6°F8.7°C 44.8°F7.1°C 90% Calm Calm -- 29.25 in990.5 mb - 0.01 in0.3 mm 1.43 in36.3 mm
05:00 PM 47.6°F8.7°C 44.8°F7.1°C 90% Calm Calm -- 29.25 in990.5 mb - 0.00 in0.0 mm 1.43 in36.3 mm
05:10 PM 47.5°F8.6°C 44.7°F7.1°C 90% Calm Calm -- 29.24 in990.2 mb - 0.00 in0.0 mm 1.43 in36.3 mm
05:15 PM 47.5°F8.6°C 44.7°F7.1°C 90% 1.2 mph N1.9 kmh N 1.2 mph1.9 kmh 29.25 in990.5 mb - 0.00 in0.0 mm 1.43 in36.3 mm
05:20 PM 47.5°F8.6°C 44.7°F7.1°C 90% Calm Calm -- 29.26 in990.9 mb - 0.02 in0.5 mm 1.45 in36.8 mm
05:25 PM 47.5°F8.6°C 44.7°F7.1°C 90% 3.5 mph N5.6 kmh N 8.1 mph13.0 kmh 29.30 in992.2 mb - 0.03 in0.8 mm 1.48 in37.6 mm
05:30 PM 47.6°F8.7°C 44.8°F7.1°C 90% 3.5 mph N5.6 kmh N 9.2 mph14.8 kmh 29.30 in992.2 mb - 0.03 in0.8 mm 1.50 in38.1 mm
05:35 PM 47.7°F8.7°C 44.9°F7.2°C 90% 3.5 mph N5.6 kmh N 5.8 mph9.3 kmh 29.28 in991.5 mb - 0.02 in0.5 mm 1.52 in38.6 mm
05:40 PM 47.7°F8.7°C 44.9°F7.2°C 90% Calm Calm -- 29.27 in991.2 mb - 0.00 in0.0 mm 1.52 in38.6 mm
05:45 PM 47.7°F8.7°C 44.9°F7.2°C 90% Calm Calm -- 29.27 in991.2 mb - 0.01 in0.3 mm 1.53 in38.9 mm
05:50 PM 47.7°F8.7°C 44.9°F7.2°C 90% Calm Calm -- 29.27 in991.2 mb - 0.01 in0.3 mm 1.54 in39.1 mm
05:55 PM 47.7°F8.7°C 44.9°F7.2°C 90% Calm Calm -- 29.27 in991.2 mb - 0.01 in0.3 mm 1.55 in39.4 mm
06:00 PM 47.7°F8.7°C 44.9°F7.2°C 90% Calm Calm -- 29.26 in990.9 mb - 0.02 in0.5 mm 1.57 in39.9 mm
06:10 PM 47.8°F8.8°C 45.0°F7.2°C 90% Calm Calm -- 29.25 in990.5 mb - 0.04 in1.0 mm 1.60 in40.6 mm
06:15 PM 47.8°F8.8°C 45.0°F7.2°C 90% 2.3 mph N3.7 kmh N 3.5 mph5.6 kmh 29.24 in990.2 mb - 0.02 in0.5 mm 1.62 in41.1 mm
06:20 PM 47.9°F8.8°C 45.1°F7.3°C 90% 1.2 mph N1.9 kmh N 3.5 mph5.6 kmh 29.24 in990.2 mb - 0.03 in0.8 mm 1.64 in41.7 mm
06:25 PM 48.1°F8.9°C 45.3°F7.4°C 90% 3.5 mph N5.6 kmh N 9.2 mph14.8 kmh 29.24 in990.2 mb - 0.01 in0.3 mm 1.65 in41.9 mm
06:30 PM 48.2°F9.0°C 45.4°F7.4°C 90% 2.3 mph N3.7 kmh N 3.5 mph5.6 kmh 29.24 in990.2 mb - 0.02 in0.5 mm 1.67 in42.4 mm
06:35 PM 48.3°F9.1°C 45.5°F7.5°C 90% Calm Calm 1.2 mph1.9 kmh 29.24 in990.2 mb - 0.02 in0.5 mm 1.68 in42.7 mm
06:40 PM 48.4°F9.1°C 45.6°F7.6°C 90% Calm Calm -- 29.23 in989.8 mb - 0.01 in0.3 mm 1.69 in42.9 mm
06:45 PM 48.5°F9.2°C 45.7°F7.6°C 90% Calm Calm -- 29.23 in989.8 mb - 0.02 in0.5 mm 1.71 in43.4 mm
06:50 PM 48.6°F9.2°C 45.8°F7.7°C 90% Calm Calm 3.5 mph5.6 kmh 29.23 in989.8 mb - 0.03 in0.8 mm 1.73 in43.9 mm
06:55 PM 48.9°F9.4°C 46.1°F7.8°C 90% Calm Calm -- 29.23 in989.8 mb - 0.02 in0.5 mm 1.74 in44.2 mm
07:00 PM 49.1°F9.5°C 46.3°F7.9°C 90% 1.2 mph N1.9 kmh N 3.5 mph5.6 kmh 29.23 in989.8 mb - 0.01 in0.3 mm 1.75 in44.5 mm
07:10 PM 49.5°F9.7°C 46.7°F8.2°C 90% Calm Calm 4.6 mph7.4 kmh 29.23 in989.8 mb - 0.04 in1.0 mm 1.79 in45.5 mm
07:15 PM 50.1°F10.1°C 47.3°F8.5°C 90% 1.2 mph N1.9 kmh N 4.6 mph7.4 kmh 29.21 in989.2 mb - 0.01 in0.3 mm 1.80 in45.7 mm
07:20 PM 51.0°F10.6°C 48.5°F9.2°C 91% 1.2 mph N1.9 kmh N 5.8 mph9.3 kmh 29.20 in988.8 mb - 0.02 in0.5 mm 1.82 in46.2 mm
07:25 PM 51.8°F11.0°C 49.2°F9.6°C 91% 2.3 mph N3.7 kmh N 5.8 mph9.3 kmh 29.19 in988.5 mb - 0.02 in0.5 mm 1.84 in46.7 mm
07:30 PM 52.5°F11.4°C 49.9°F9.9°C 91% 6.9 mph N11.1 kmh N 10.4 mph16.7 kmh 29.17 in987.8 mb - 0.02 in0.5 mm 1.86 in47.2 mm
07:35 PM 52.9°F11.6°C 50.4°F10.2°C 91% 5.8 mph N9.3 kmh N 9.2 mph14.8 kmh 29.17 in987.8 mb - 0.02 in0.5 mm 1.88 in47.8 mm
07:40 PM 53.2°F11.8°C 50.7°F10.4°C 91% 3.5 mph N5.6 kmh N 5.8 mph9.3 kmh 29.16 in987.5 mb - 0.02 in0.5 mm 1.90 in48.3 mm
07:45 PM 53.6°F12.0°C 51.1°F10.6°C 91% 11.5 mph N18.5 kmh N 15.0 mph24.1 kmh 29.16 in987.5 mb - 0.00 in0.0 mm 1.90 in48.3 mm
07:50 PM 53.8°F12.1°C 51.2°F10.7°C 91% 8.1 mph N13.0 kmh N 9.2 mph14.8 kmh 29.15 in987.1 mb - 0.00 in0.0 mm 1.90 in48.3 mm
07:55 PM 54.0°F12.2°C 51.4°F10.8°C 91% 8.1 mph N13.0 kmh N 8.1 mph13.0 kmh 29.15 in987.1 mb - 0.00 in0.0 mm 1.90 in48.3 mm
08:00 PM 54.2°F12.3°C 51.6°F10.9°C 91% 6.9 mph N11.1 kmh N 8.1 mph13.0 kmh 29.16 in987.5 mb - 0.01 in0.3 mm 1.91 in48.5 mm
08:10 PM 54.2°F12.3°C 51.6°F10.9°C 91% 6.9 mph N11.1 kmh N 8.1 mph13.0 kmh 29.14 in986.8 mb - 0.01 in0.3 mm 1.92 in48.8 mm
08:15 PM 54.4°F12.4°C 51.8°F11.0°C 91% 8.1 mph N13.0 kmh N 9.2 mph14.8 kmh 29.13 in986.5 mb - 0.00 in0.0 mm 1.92 in48.8 mm
08:20 PM 54.4°F12.4°C 51.8°F11.0°C 91% 9.2 mph N14.8 kmh N 10.4 mph16.7 kmh 29.14 in986.8 mb - 0.00 in0.0 mm 1.92 in48.8 mm
08:25 PM 54.4°F12.4°C 51.9°F11.1°C 91% 6.9 mph N11.1 kmh N 9.2 mph14.8 kmh 29.13 in986.5 mb - 0.00 in0.0 mm 1.92 in48.8 mm
08:30 PM 54.4°F12.4°C 51.8°F11.0°C 91% 6.9 mph N11.1 kmh N 9.2 mph14.8 kmh 29.14 in986.8 mb - 0.01 in0.3 mm 1.93 in49.0 mm
08:35 PM 54.4°F12.4°C 51.8°F11.0°C 91% 6.9 mph N11.1 kmh N 9.2 mph14.8 kmh 29.14 in986.8 mb - 0.00 in0.0 mm 1.93 in49.0 mm
08:40 PM 54.4°F12.4°C 51.8°F11.0°C 91% 5.8 mph N9.3 kmh N 10.4 mph16.7 kmh 29.14 in986.8 mb - 0.00 in0.0 mm 1.93 in49.0 mm
08:45 PM 54.4°F12.4°C 51.8°F11.0°C 91% 5.8 mph N9.3 kmh N 8.1 mph13.0 kmh 29.14 in986.8 mb - 0.00 in0.0 mm 1.93 in49.0 mm
08:50 PM 54.4°F12.4°C 51.8°F11.0°C 91% 2.3 mph N3.7 kmh N 8.1 mph13.0 kmh 29.14 in986.8 mb - 0.00 in0.0 mm 1.93 in49.0 mm
08:55 PM 54.4°F12.4°C 51.8°F11.0°C 91% 2.3 mph N3.7 kmh N 9.2 mph14.8 kmh 29.14 in986.8 mb - 0.00 in0.0 mm 1.93 in49.0 mm
09:00 PM 54.4°F12.4°C 51.8°F11.0°C 91% Calm Calm 3.5 mph5.6 kmh 29.13 in986.5 mb - 0.00 in0.0 mm 1.93 in49.0 mm
09:10 PM 54.3°F12.4°C 51.7°F10.9°C 91% 2.3 mph N3.7 kmh N 4.6 mph7.4 kmh 29.13 in986.5 mb - 0.00 in0.0 mm 1.93 in49.0 mm
09:15 PM 54.3°F12.4°C 51.7°F10.9°C 91% 3.5 mph N5.6 kmh N 5.8 mph9.3 kmh 29.13 in986.5 mb - 0.00 in0.0 mm 1.93 in49.0 mm
09:20 PM 54.3°F12.4°C 51.7°F10.9°C 91% 1.2 mph N1.9 kmh N -- 29.13 in986.5 mb - 0.01 in0.3 mm 1.94 in49.3 mm
09:25 PM 54.3°F12.4°C 51.7°F10.9°C 91% Calm Calm 1.2 mph1.9 kmh 29.13 in986.5 mb - 0.01 in0.3 mm 1.94 in49.3 mm
09:30 PM 54.4°F12.4°C 51.8°F11.0°C 91% 3.5 mph N5.6 kmh N 8.1 mph13.0 kmh 29.13 in986.5 mb - 0.00 in0.0 mm 1.94 in49.3 mm
09:35 PM 54.4°F12.4°C 51.8°F11.0°C 91% 1.2 mph N1.9 kmh N -- 29.13 in986.5 mb - 0.01 in0.3 mm 1.95 in49.5 mm
09:40 PM 54.4°F12.4°C 51.8°F11.0°C 91% 2.3 mph N3.7 kmh N 3.5 mph5.6 kmh 29.13 in986.5 mb - 0.00 in0.0 mm 1.95 in49.5 mm
09:45 PM 54.3°F12.4°C 51.7°F10.9°C 91% 10.4 mph N16.7 kmh N 15.0 mph24.1 kmh 29.14 in986.8 mb - 0.01 in0.3 mm 1.96 in49.8 mm
09:50 PM 53.2°F11.8°C 50.4°F10.2°C 90% 4.6 mph N7.4 kmh N 11.5 mph18.5 kmh 29.14 in986.8 mb - 0.00 in0.0 mm 1.96 in49.8 mm
09:55 PM 52.3°F11.3°C 49.4°F9.7°C 90% 10.4 mph N16.7 kmh N 13.8 mph22.2 kmh 29.14 in986.8 mb - 0.01 in0.3 mm 1.97 in50.0 mm
10:00 PM 51.5°F10.8°C 48.7°F9.3°C 90% Calm Calm 1.2 mph1.9 kmh 29.15 in987.1 mb - 0.01 in0.3 mm 1.97 in50.0 mm
10:10 PM 50.4°F10.2°C 47.6°F8.7°C 90% 1.2 mph N1.9 kmh N 3.5 mph5.6 kmh 29.16 in987.5 mb - 0.00 in0.0 mm 1.97 in50.0 mm
10:15 PM 49.7°F9.8°C 46.6°F8.1°C 89% 2.3 mph N3.7 kmh N 8.1 mph13.0 kmh 29.17 in987.8 mb - 0.00 in0.0 mm 1.97 in50.0 mm
10:20 PM 49.1°F9.5°C 46.0°F7.8°C 89% 2.3 mph N3.7 kmh N 5.8 mph9.3 kmh 29.17 in987.8 mb - 0.00 in0.0 mm 1.97 in50.0 mm
10:25 PM 48.4°F9.1°C 45.3°F7.4°C 89% 6.9 mph N11.1 kmh N 8.1 mph13.0 kmh 29.18 in988.1 mb - 0.01 in0.3 mm 1.98 in50.3 mm
10:30 PM 47.7°F8.7°C 44.6°F7.0°C 89% 2.3 mph 3.7 kmh 3.5 mph5.6 kmh 29.19 in988.5 mb - 0.00 in0.0 mm 1.98 in50.3 mm
10:35 PM 47.0°F8.3°C 44.0°F6.7°C 89% 5.8 mph N9.3 kmh N 18.4 mph29.6 kmh 29.20 in988.8 mb - 0.00 in0.0 mm 1.98 in50.3 mm
10:40 PM 46.5°F8.1°C 43.5°F6.4°C 89% 8.1 mph N13.0 kmh N 20.7 mph33.3 kmh 29.21 in989.2 mb - 0.01 in0.3 mm 1.99 in50.5 mm
10:45 PM 45.9°F7.7°C 42.8°F6.0°C 89% 4.6 mph N7.4 kmh N 13.8 mph22.2 kmh 29.22 in989.5 mb - 0.00 in0.0 mm 1.99 in50.5 mm
10:55 PM 45.0°F7.2°C 41.7°F5.4°C 88% 3.5 mph N5.6 kmh N 8.1 mph13.0 kmh 29.22 in989.5 mb - 0.00 in0.0 mm 1.99 in50.5 mm
11:00 PM 44.7°F7.1°C 41.6°F5.3°C 89% 4.6 mph N7.4 kmh N 9.2 mph14.8 kmh 29.23 in989.8 mb - 0.01 in0.3 mm 2.00 in50.8 mm
11:10 PM 43.5°F6.4°C 40.2°F4.6°C 88% 6.9 mph 11.1 kmh 15.0 mph24.1 kmh 29.24 in990.2 mb - 0.00 in0.0 mm 2.00 in50.8 mm
11:15 PM 42.9°F6.1°C 39.6°F4.2°C 88% 4.6 mph N7.4 kmh N 5.8 mph9.3 kmh 29.24 in990.2 mb - 0.00 in0.0 mm 2.00 in50.8 mm
11:20 PM 42.5°F5.8°C 39.4°F4.1°C 89% 3.5 mph N5.6 kmh N 4.6 mph7.4 kmh 29.25 in990.5 mb - 0.00 in0.0 mm 2.00 in50.8 mm
11:25 PM 42.0°F5.6°C 38.4°F3.6°C 87% 8.1 mph N13.0 kmh N 10.4 mph16.7 kmh 29.26 in990.9 mb - 0.01 in0.3 mm 2.01 in51.1 mm
11:30 PM 41.4°F5.2°C 37.8°F3.2°C 87% 3.5 mph N5.6 kmh N 9.2 mph14.8 kmh 29.27 in991.2 mb - 0.00 in0.0 mm 2.01 in51.1 mm
11:35 PM 40.7°F4.8°C 37.2°F2.9°C 87% 6.9 mph N11.1 kmh N 5.8 mph9.3 kmh 29.27 in991.2 mb - 0.00 in0.0 mm 2.01 in51.1 mm
11:40 PM 40.2°F4.6°C 36.6°F2.6°C 87% 4.6 mph N7.4 kmh N 5.8 mph9.3 kmh 29.28 in991.5 mb - 0.00 in0.0 mm 2.01 in51.1 mm
11:45 PM 39.9°F4.4°C 36.3°F2.4°C 87% 2.3 mph N3.7 kmh N 3.5 mph5.6 kmh 29.29 in991.9 mb - 0.00 in0.0 mm 2.01 in51.1 mm
11:50 PM 39.7°F4.3°C 36.1°F2.3°C 87% 2.3 mph N3.7 kmh N 9.2 mph14.8 kmh 29.30 in992.2 mb - 0.00 in0.0 mm 2.01 in51.1 mm
11:55 PM 39.4°F4.1°C 35.8°F2.1°C 87% 6.9 mph N11.1 kmh N 4.6 mph7.4 kmh 29.31 in992.6 mb - 0.00 in0.0 mm 2.01 in51.1 mm